sensor_id;sensor_type;location;lat;lon;timestamp;P1;durP1;ratioP1;P2;durP2;ratioP2
65368;SDS011;51970;53.484;49.488;2022-11-20T00:00:52;14.38;;;6.22;;
65368;SDS011;51970;53.484;49.488;2022-11-20T00:03:18;9.80;;;5.82;;
65368;SDS011;51970;53.484;49.488;2022-11-20T00:05:44;13.75;;;7.15;;
65368;SDS011;51970;53.484;49.488;2022-11-20T00:08:10;13.00;;;7.43;;
65368;SDS011;51970;53.484;49.488;2022-11-20T00:10:37;8.75;;;5.20;;
65368;SDS011;51970;53.484;49.488;2022-11-20T00:13:03;11.65;;;5.43;;
65368;SDS011;51970;53.484;49.488;2022-11-20T00:15:29;8.20;;;4.55;;
65368;SDS011;51970;53.484;49.488;2022-11-20T00:17:55;11.25;;;7.93;;
65368;SDS011;51970;53.484;49.488;2022-11-20T00:20:21;11.25;;;5.53;;
65368;SDS011;51970;53.484;49.488;2022-11-20T00:22:47;9.38;;;4.82;;
65368;SDS011;51970;53.484;49.488;2022-11-20T00:25:14;10.63;;;5.68;;
65368;SDS011;51970;53.484;49.488;2022-11-20T00:27:40;9.45;;;5.22;;
65368;SDS011;51970;53.484;49.488;2022-11-20T00:30:06;8.63;;;4.95;;
65368;SDS011;51970;53.484;49.488;2022-11-20T00:32:33;9.98;;;4.65;;
65368;SDS011;51970;53.484;49.488;2022-11-20T00:34:59;10.63;;;5.82;;
65368;SDS011;51970;53.484;49.488;2022-11-20T00:37:25;8.65;;;5.00;;
65368;SDS011;51970;53.484;49.488;2022-11-20T00:39:52;9.43;;;5.65;;
65368;SDS011;51970;53.484;49.488;2022-11-20T00:42:18;10.88;;;5.75;;
65368;SDS011;51970;53.484;49.488;2022-11-20T00:44:44;10.93;;;6.30;;
65368;SDS011;51970;53.484;49.488;2022-11-20T00:47:10;12.18;;;8.38;;
65368;SDS011;51970;53.484;49.488;2022-11-20T00:49:36;9.80;;;5.15;;
65368;SDS011;51970;53.484;49.488;2022-11-20T00:52:02;10.60;;;5.78;;
65368;SDS011;51970;53.484;49.488;2022-11-20T00:54:28;13.23;;;10.02;;
65368;SDS011;51970;53.484;49.488;2022-11-20T00:56:54;9.48;;;5.97;;
65368;SDS011;51970;53.484;49.488;2022-11-20T00:59:20;9.05;;;5.43;;
65368;SDS011;51970;53.484;49.488;2022-11-20T01:01:46;9.18;;;5.80;;
65368;SDS011;51970;53.484;49.488;2022-11-20T01:04:12;9.18;;;5.45;;
65368;SDS011;51970;53.484;49.488;2022-11-20T01:06:38;9.07;;;4.47;;
65368;SDS011;51970;53.484;49.488;2022-11-20T01:09:06;10.05;;;4.57;;
65368;SDS011;51970;53.484;49.488;2022-11-20T01:14:05;10.30;;;8.27;;
65368;SDS011;51970;53.484;49.488;2022-11-20T01:16:34;11.02;;;5.28;;
65368;SDS011;51970;53.484;49.488;2022-11-20T01:19:14;11.32;;;5.57;;
65368;SDS011;51970;53.484;49.488;2022-11-20T01:21:42;10.38;;;6.30;;
65368;SDS011;51970;53.484;49.488;2022-11-20T01:24:11;9.85;;;5.22;;
65368;SDS011;51970;53.484;49.488;2022-11-20T01:26:39;9.93;;;4.90;;
65368;SDS011;51970;53.484;49.488;2022-11-20T01:29:07;8.98;;;5.03;;
65368;SDS011;51970;53.484;49.488;2022-11-20T01:31:37;9.82;;;5.75;;
65368;SDS011;51970;53.484;49.488;2022-11-20T01:34:04;11.57;;;5.65;;
65368;SDS011;51970;53.484;49.488;2022-11-20T01:36:32;10.13;;;5.35;;
65368;SDS011;51970;53.484;49.488;2022-11-20T01:39:02;11.13;;;5.78;;
65368;SDS011;51970;53.484;49.488;2022-11-20T01:41:31;10.50;;;5.85;;
65368;SDS011;51970;53.484;49.488;2022-11-20T01:44:18;11.25;;;5.53;;
65368;SDS011;51970;53.484;49.488;2022-11-20T01:47:07;9.52;;;5.75;;
65368;SDS011;51970;53.484;49.488;2022-11-20T01:49:38;9.52;;;4.95;;
65368;SDS011;51970;53.484;49.488;2022-11-20T01:52:12;10.35;;;5.47;;
65368;SDS011;51970;53.484;49.488;2022-11-20T01:54:43;11.75;;;5.13;;
65368;SDS011;51970;53.484;49.488;2022-11-20T01:57:14;9.82;;;5.10;;
65368;SDS011;51970;53.484;49.488;2022-11-20T01:59:44;11.10;;;5.10;;
65368;SDS011;51970;53.484;49.488;2022-11-20T02:02:16;9.30;;;5.47;;
65368;SDS011;51970;53.484;49.488;2022-11-20T02:04:43;9.77;;;5.20;;
65368;SDS011;51970;53.484;49.488;2022-11-20T02:07:09;9.63;;;5.43;;
65368;SDS011;51970;53.484;49.488;2022-11-20T02:09:37;11.73;;;5.93;;
65368;SDS011;51970;53.484;49.488;2022-11-20T02:12:03;11.50;;;5.18;;
65368;SDS011;51970;53.484;49.488;2022-11-20T02:14:29;9.93;;;6.20;;
65368;SDS011;51970;53.484;49.488;2022-11-20T02:16:56;9.98;;;6.03;;
65368;SDS011;51970;53.484;49.488;2022-11-20T02:19:29;19.58;;;6.18;;
65368;SDS011;51970;53.484;49.488;2022-11-20T02:22:01;11.77;;;5.22;;
65368;SDS011;51970;53.484;49.488;2022-11-20T02:24:33;11.48;;;5.97;;
65368;SDS011;51970;53.484;49.488;2022-11-20T02:27:01;9.32;;;4.80;;
65368;SDS011;51970;53.484;49.488;2022-11-20T02:29:37;11.82;;;5.95;;
65368;SDS011;51970;53.484;49.488;2022-11-20T02:32:17;10.43;;;4.72;;
65368;SDS011;51970;53.484;49.488;2022-11-20T02:34:47;11.75;;;6.07;;
65368;SDS011;51970;53.484;49.488;2022-11-20T02:37:13;8.63;;;5.20;;
65368;SDS011;51970;53.484;49.488;2022-11-20T02:39:40;8.80;;;4.80;;
65368;SDS011;51970;53.484;49.488;2022-11-20T02:42:07;9.93;;;4.95;;
65368;SDS011;51970;53.484;49.488;2022-11-20T02:44:33;9.60;;;5.28;;
65368;SDS011;51970;53.484;49.488;2022-11-20T02:46:59;13.10;;;8.90;;
65368;SDS011;51970;53.484;49.488;2022-11-20T02:49:25;10.00;;;6.28;;
65368;SDS011;51970;53.484;49.488;2022-11-20T02:51:51;10.50;;;5.78;;
65368;SDS011;51970;53.484;49.488;2022-11-20T02:54:17;12.00;;;5.57;;
65368;SDS011;51970;53.484;49.488;2022-11-20T02:56:43;10.93;;;5.80;;
65368;SDS011;51970;53.484;49.488;2022-11-20T02:59:09;11.77;;;6.00;;
65368;SDS011;51970;53.484;49.488;2022-11-20T03:01:35;10.48;;;5.43;;
65368;SDS011;51970;53.484;49.488;2022-11-20T03:04:01;9.85;;;4.72;;
65368;SDS011;51970;53.484;49.488;2022-11-20T03:06:28;9.70;;;5.40;;
65368;SDS011;51970;53.484;49.488;2022-11-20T03:08:54;10.98;;;5.70;;
65368;SDS011;51970;53.484;49.488;2022-11-20T03:11:20;11.20;;;5.78;;
65368;SDS011;51970;53.484;49.488;2022-11-20T03:13:46;12.05;;;8.75;;
65368;SDS011;51970;53.484;49.488;2022-11-20T03:16:13;11.23;;;5.82;;
65368;SDS011;51970;53.484;49.488;2022-11-20T03:18:44;12.57;;;6.28;;
65368;SDS011;51970;53.484;49.488;2022-11-20T03:21:11;9.15;;;4.95;;
65368;SDS011;51970;53.484;49.488;2022-11-20T03:23:38;13.43;;;5.53;;
65368;SDS011;51970;53.484;49.488;2022-11-20T03:28:42;10.48;;;5.72;;
65368;SDS011;51970;53.484;49.488;2022-11-20T03:31:13;12.52;;;6.22;;
65368;SDS011;51970;53.484;49.488;2022-11-20T03:33:40;10.93;;;5.75;;
65368;SDS011;51970;53.484;49.488;2022-11-20T03:36:09;13.00;;;7.72;;
65368;SDS011;51970;53.484;49.488;2022-11-20T03:38:39;8.48;;;4.97;;
65368;SDS011;51970;53.484;49.488;2022-11-20T03:41:06;11.88;;;5.45;;
65368;SDS011;51970;53.484;49.488;2022-11-20T03:43:34;8.60;;;4.97;;
65368;SDS011;51970;53.484;49.488;2022-11-20T03:46:01;14.10;;;5.22;;
65368;SDS011;51970;53.484;49.488;2022-11-20T03:48:27;9.32;;;4.88;;
65368;SDS011;51970;53.484;49.488;2022-11-20T03:51:05;8.93;;;4.93;;
65368;SDS011;51970;53.484;49.488;2022-11-20T03:53:33;10.73;;;6.35;;
65368;SDS011;51970;53.484;49.488;2022-11-20T03:55:59;10.15;;;5.68;;
65368;SDS011;51970;53.484;49.488;2022-11-20T03:58:25;12.00;;;6.50;;
65368;SDS011;51970;53.484;49.488;2022-11-20T04:00:51;9.15;;;4.88;;
65368;SDS011;51970;53.484;49.488;2022-11-20T04:03:17;10.57;;;5.68;;
65368;SDS011;51970;53.484;49.488;2022-11-20T04:05:43;9.82;;;5.78;;
65368;SDS011;51970;53.484;49.488;2022-11-20T04:08:09;10.45;;;6.10;;
65368;SDS011;51970;53.484;49.488;2022-11-20T04:10:35;10.82;;;5.68;;
65368;SDS011;51970;53.484;49.488;2022-11-20T04:13:01;10.55;;;5.13;;
65368;SDS011;51970;53.484;49.488;2022-11-20T04:15:27;11.98;;;8.73;;
65368;SDS011;51970;53.484;49.488;2022-11-20T04:17:53;12.85;;;7.53;;
65368;SDS011;51970;53.484;49.488;2022-11-20T04:20:20;9.75;;;5.28;;
65368;SDS011;51970;53.484;49.488;2022-11-20T04:22:46;12.32;;;8.32;;
65368;SDS011;51970;53.484;49.488;2022-11-20T04:25:12;12.68;;;8.60;;
65368;SDS011;51970;53.484;49.488;2022-11-20T04:27:38;12.68;;;8.32;;
65368;SDS011;51970;53.484;49.488;2022-11-20T04:30:04;11.57;;;7.82;;
65368;SDS011;51970;53.484;49.488;2022-11-20T04:32:30;12.27;;;8.00;;
65368;SDS011;51970;53.484;49.488;2022-11-20T04:34:57;9.38;;;5.10;;
65368;SDS011;51970;53.484;49.488;2022-11-20T04:37:23;11.50;;;7.75;;
65368;SDS011;51970;53.484;49.488;2022-11-20T04:39:49;11.20;;;8.23;;
65368;SDS011;51970;53.484;49.488;2022-11-20T04:42:15;11.02;;;6.50;;
65368;SDS011;51970;53.484;49.488;2022-11-20T04:47:20;10.52;;;7.43;;
65368;SDS011;51970;53.484;49.488;2022-11-20T04:49:46;10.65;;;7.22;;
65368;SDS011;51970;53.484;49.488;2022-11-20T04:52:12;11.90;;;7.85;;
65368;SDS011;51970;53.484;49.488;2022-11-20T04:54:38;13.40;;;6.93;;
65368;SDS011;51970;53.484;49.488;2022-11-20T04:57:04;10.23;;;5.30;;
65368;SDS011;51970;53.484;49.488;2022-11-20T04:59:30;10.32;;;5.20;;
65368;SDS011;51970;53.484;49.488;2022-11-20T05:01:56;9.30;;;5.55;;
65368;SDS011;51970;53.484;49.488;2022-11-20T05:04:22;11.00;;;5.68;;
65368;SDS011;51970;53.484;49.488;2022-11-20T05:06:49;9.80;;;4.65;;
65368;SDS011;51970;53.484;49.488;2022-11-20T05:09:15;10.52;;;5.30;;
65368;SDS011;51970;53.484;49.488;2022-11-20T05:11:41;10.23;;;5.53;;
65368;SDS011;51970;53.484;49.488;2022-11-20T05:14:07;9.18;;;4.80;;
65368;SDS011;51970;53.484;49.488;2022-11-20T05:16:34;12.63;;;5.10;;
65368;SDS011;51970;53.484;49.488;2022-11-20T05:19:01;10.77;;;6.90;;
65368;SDS011;51970;53.484;49.488;2022-11-20T05:21:29;11.43;;;5.97;;
65368;SDS011;51970;53.484;49.488;2022-11-20T05:23:56;11.13;;;5.38;;
65368;SDS011;51970;53.484;49.488;2022-11-20T05:26:22;12.60;;;6.00;;
65368;SDS011;51970;53.484;49.488;2022-11-20T05:28:49;10.43;;;5.53;;
65368;SDS011;51970;53.484;49.488;2022-11-20T05:31:17;9.82;;;5.15;;
65368;SDS011;51970;53.484;49.488;2022-11-20T05:33:45;10.98;;;5.97;;
65368;SDS011;51970;53.484;49.488;2022-11-20T05:36:12;9.18;;;4.55;;
65368;SDS011;51970;53.484;49.488;2022-11-20T05:38:40;9.85;;;5.10;;
65368;SDS011;51970;53.484;49.488;2022-11-20T05:41:07;12.43;;;7.75;;
65368;SDS011;51970;53.484;49.488;2022-11-20T05:46:06;11.73;;;6.03;;
65368;SDS011;51970;53.484;49.488;2022-11-20T05:48:36;12.65;;;6.05;;
65368;SDS011;51970;53.484;49.488;2022-11-20T05:51:03;12.48;;;6.35;;
65368;SDS011;51970;53.484;49.488;2022-11-20T05:53:31;13.25;;;8.98;;
65368;SDS011;51970;53.484;49.488;2022-11-20T05:55:59;13.35;;;6.50;;
65368;SDS011;51970;53.484;49.488;2022-11-20T05:58:26;15.07;;;9.20;;
65368;SDS011;51970;53.484;49.488;2022-11-20T06:00:52;14.27;;;9.48;;
65368;SDS011;51970;53.484;49.488;2022-11-20T06:03:18;16.55;;;7.88;;
65368;SDS011;51970;53.484;49.488;2022-11-20T06:05:45;17.30;;;12.65;;
65368;SDS011;51970;53.484;49.488;2022-11-20T06:08:11;14.13;;;9.18;;
65368;SDS011;51970;53.484;49.488;2022-11-20T06:10:37;15.23;;;7.97;;
65368;SDS011;51970;53.484;49.488;2022-11-20T06:13:03;24.92;;;13.23;;
65368;SDS011;51970;53.484;49.488;2022-11-20T06:15:29;23.30;;;11.73;;
65368;SDS011;51970;53.484;49.488;2022-11-20T06:17:55;19.73;;;10.05;;
65368;SDS011;51970;53.484;49.488;2022-11-20T06:20:22;16.25;;;7.95;;
65368;SDS011;51970;53.484;49.488;2022-11-20T06:22:48;16.58;;;7.95;;
65368;SDS011;51970;53.484;49.488;2022-11-20T06:25:14;17.00;;;8.95;;
65368;SDS011;51970;53.484;49.488;2022-11-20T06:27:40;18.00;;;9.50;;
65368;SDS011;51970;53.484;49.488;2022-11-20T06:30:06;24.33;;;15.05;;
65368;SDS011;51970;53.484;49.488;2022-11-20T06:32:33;30.67;;;14.65;;
65368;SDS011;51970;53.484;49.488;2022-11-20T06:34:59;17.67;;;9.73;;
65368;SDS011;51970;53.484;49.488;2022-11-20T06:37:25;28.42;;;13.45;;
65368;SDS011;51970;53.484;49.488;2022-11-20T06:39:51;51.38;;;25.27;;
65368;SDS011;51970;53.484;49.488;2022-11-20T06:42:17;37.83;;;17.17;;
65368;SDS011;51970;53.484;49.488;2022-11-20T06:44:43;43.28;;;18.20;;
65368;SDS011;51970;53.484;49.488;2022-11-20T06:47:11;33.47;;;15.88;;
65368;SDS011;51970;53.484;49.488;2022-11-20T06:49:37;31.48;;;12.52;;
65368;SDS011;51970;53.484;49.488;2022-11-20T06:52:04;63.45;;;25.20;;
65368;SDS011;51970;53.484;49.488;2022-11-20T06:54:30;46.85;;;19.23;;
65368;SDS011;51970;53.484;49.488;2022-11-20T06:56:56;19.13;;;10.07;;
65368;SDS011;51970;53.484;49.488;2022-11-20T06:59:22;25.52;;;12.18;;
65368;SDS011;51970;53.484;49.488;2022-11-20T07:01:48;20.17;;;7.75;;
65368;SDS011;51970;53.484;49.488;2022-11-20T07:04:14;24.60;;;11.02;;
65368;SDS011;51970;53.484;49.488;2022-11-20T07:06:40;20.33;;;12.07;;
65368;SDS011;51970;53.484;49.488;2022-11-20T07:09:06;27.00;;;11.88;;
65368;SDS011;51970;53.484;49.488;2022-11-20T07:11:32;25.40;;;12.45;;
65368;SDS011;51970;53.484;49.488;2022-11-20T07:13:58;20.85;;;10.57;;
65368;SDS011;51970;53.484;49.488;2022-11-20T07:16:24;19.85;;;11.15;;
65368;SDS011;51970;53.484;49.488;2022-11-20T07:18:50;14.82;;;8.05;;
65368;SDS011;51970;53.484;49.488;2022-11-20T07:21:17;19.98;;;9.07;;
65368;SDS011;51970;53.484;49.488;2022-11-20T07:23:43;22.38;;;9.10;;
65368;SDS011;51970;53.484;49.488;2022-11-20T07:26:10;17.42;;;8.55;;
65368;SDS011;51970;53.484;49.488;2022-11-20T07:28:36;25.05;;;14.15;;
65368;SDS011;51970;53.484;49.488;2022-11-20T07:31:03;17.48;;;9.52;;
65368;SDS011;51970;53.484;49.488;2022-11-20T07:33:30;21.30;;;14.75;;
65368;SDS011;51970;53.484;49.488;2022-11-20T07:35:58;22.85;;;11.48;;
65368;SDS011;51970;53.484;49.488;2022-11-20T07:38:25;16.65;;;9.32;;
65368;SDS011;51970;53.484;49.488;2022-11-20T07:40:55;18.52;;;9.90;;
65368;SDS011;51970;53.484;49.488;2022-11-20T07:43:23;19.92;;;12.43;;
65368;SDS011;51970;53.484;49.488;2022-11-20T07:45:50;18.23;;;9.82;;
65368;SDS011;51970;53.484;49.488;2022-11-20T07:48:16;16.45;;;9.13;;
65368;SDS011;51970;53.484;49.488;2022-11-20T07:50:42;17.17;;;8.45;;
65368;SDS011;51970;53.484;49.488;2022-11-20T07:53:10;16.67;;;7.82;;
65368;SDS011;51970;53.484;49.488;2022-11-20T07:55:37;16.60;;;8.48;;
65368;SDS011;51970;53.484;49.488;2022-11-20T07:58:05;14.20;;;7.47;;
65368;SDS011;51970;53.484;49.488;2022-11-20T08:00:31;17.23;;;9.57;;
65368;SDS011;51970;53.484;49.488;2022-11-20T08:02:57;15.80;;;7.80;;
65368;SDS011;51970;53.484;49.488;2022-11-20T08:05:24;18.17;;;9.10;;
65368;SDS011;51970;53.484;49.488;2022-11-20T08:07:50;20.60;;;8.88;;
65368;SDS011;51970;53.484;49.488;2022-11-20T08:10:16;18.88;;;8.13;;
65368;SDS011;51970;53.484;49.488;2022-11-20T08:12:43;15.35;;;9.20;;
65368;SDS011;51970;53.484;49.488;2022-11-20T08:15:33;14.80;;;7.45;;
65368;SDS011;51970;53.484;49.488;2022-11-20T08:18:00;19.70;;;10.95;;
65368;SDS011;51970;53.484;49.488;2022-11-20T08:20:27;14.52;;;7.32;;
65368;SDS011;51970;53.484;49.488;2022-11-20T08:22:57;13.02;;;7.18;;
65368;SDS011;51970;53.484;49.488;2022-11-20T08:25:27;14.73;;;7.70;;
65368;SDS011;51970;53.484;49.488;2022-11-20T08:27:57;16.08;;;7.95;;
65368;SDS011;51970;53.484;49.488;2022-11-20T08:30:27;12.88;;;7.07;;
65368;SDS011;51970;53.484;49.488;2022-11-20T08:32:54;13.95;;;8.63;;
65368;SDS011;51970;53.484;49.488;2022-11-20T08:35:21;14.25;;;7.75;;
65368;SDS011;51970;53.484;49.488;2022-11-20T08:37:48;38.53;;;18.73;;
65368;SDS011;51970;53.484;49.488;2022-11-20T08:40:15;21.70;;;10.68;;
65368;SDS011;51970;53.484;49.488;2022-11-20T08:42:47;22.85;;;11.82;;
65368;SDS011;51970;53.484;49.488;2022-11-20T08:45:15;21.67;;;9.80;;
65368;SDS011;51970;53.484;49.488;2022-11-20T08:47:45;26.08;;;9.73;;
65368;SDS011;51970;53.484;49.488;2022-11-20T08:50:12;26.98;;;13.20;;
65368;SDS011;51970;53.484;49.488;2022-11-20T08:52:40;40.78;;;16.10;;
65368;SDS011;51970;53.484;49.488;2022-11-20T08:55:06;45.28;;;17.27;;
65368;SDS011;51970;53.484;49.488;2022-11-20T08:57:36;24.42;;;12.05;;
65368;SDS011;51970;53.484;49.488;2022-11-20T09:00:03;40.17;;;19.75;;
65368;SDS011;51970;53.484;49.488;2022-11-20T09:02:31;38.58;;;18.98;;
65368;SDS011;51970;53.484;49.488;2022-11-20T09:04:58;31.33;;;14.35;;
65368;SDS011;51970;53.484;49.488;2022-11-20T09:07:28;31.10;;;16.02;;
65368;SDS011;51970;53.484;49.488;2022-11-20T09:09:54;37.28;;;17.92;;
65368;SDS011;51970;53.484;49.488;2022-11-20T09:12:20;25.35;;;11.05;;
65368;SDS011;51970;53.484;49.488;2022-11-20T09:14:46;25.10;;;11.30;;
65368;SDS011;51970;53.484;49.488;2022-11-20T09:17:12;15.63;;;10.20;;
65368;SDS011;51970;53.484;49.488;2022-11-20T09:19:40;15.77;;;8.07;;
65368;SDS011;51970;53.484;49.488;2022-11-20T09:22:06;19.60;;;9.13;;
65368;SDS011;51970;53.484;49.488;2022-11-20T09:24:32;22.67;;;10.95;;
65368;SDS011;51970;53.484;49.488;2022-11-20T09:27:01;32.17;;;14.50;;
65368;SDS011;51970;53.484;49.488;2022-11-20T09:29:31;12.20;;;6.35;;
65368;SDS011;51970;53.484;49.488;2022-11-20T09:31:59;14.60;;;7.22;;
65368;SDS011;51970;53.484;49.488;2022-11-20T09:34:26;26.42;;;11.77;;
65368;SDS011;51970;53.484;49.488;2022-11-20T09:36:54;31.55;;;14.18;;
65368;SDS011;51970;53.484;49.488;2022-11-20T09:39:20;19.75;;;9.82;;
65368;SDS011;51970;53.484;49.488;2022-11-20T09:42:11;17.55;;;8.25;;
65368;SDS011;51970;53.484;49.488;2022-11-20T09:50:36;33.10;;;15.52;;
65368;SDS011;51970;53.484;49.488;2022-11-20T09:55:46;35.00;;;15.60;;
65368;SDS011;51970;53.484;49.488;2022-11-20T09:58:25;20.42;;;10.10;;
65368;SDS011;51970;53.484;49.488;2022-11-20T10:00:56;16.02;;;9.35;;
65368;SDS011;51970;53.484;49.488;2022-11-20T10:03:48;15.90;;;8.75;;
65368;SDS011;51970;53.484;49.488;2022-11-20T10:06:22;20.63;;;10.00;;
65368;SDS011;51970;53.484;49.488;2022-11-20T10:08:58;16.48;;;7.97;;
65368;SDS011;51970;53.484;49.488;2022-11-20T10:19:59;14.35;;;6.82;;
65368;SDS011;51970;53.484;49.488;2022-11-20T10:31:14;40.53;;;16.88;;
65368;SDS011;51970;53.484;49.488;2022-11-20T10:33:57;32.30;;;13.07;;
65368;SDS011;51970;53.484;49.488;2022-11-20T10:36:34;54.13;;;20.70;;
65368;SDS011;51970;53.484;49.488;2022-11-20T10:39:20;46.20;;;20.08;;
65368;SDS011;51970;53.484;49.488;2022-11-20T10:42:31;49.15;;;21.75;;
65368;SDS011;51970;53.484;49.488;2022-11-20T10:45:20;43.35;;;19.05;;
65368;SDS011;51970;53.484;49.488;2022-11-20T10:47:54;56.88;;;22.13;;
65368;SDS011;51970;53.484;49.488;2022-11-20T10:50:26;14.57;;;7.32;;
65368;SDS011;51970;53.484;49.488;2022-11-20T10:55:42;43.75;;;16.77;;
65368;SDS011;51970;53.484;49.488;2022-11-20T10:58:16;22.33;;;9.85;;
65368;SDS011;51970;53.484;49.488;2022-11-20T11:01:03;18.10;;;8.63;;
65368;SDS011;51970;53.484;49.488;2022-11-20T11:03:51;12.38;;;5.97;;
65368;SDS011;51970;53.484;49.488;2022-11-20T11:06:24;12.52;;;5.97;;
65368;SDS011;51970;53.484;49.488;2022-11-20T11:09:29;12.85;;;7.13;;
65368;SDS011;51970;53.484;49.488;2022-11-20T11:11:58;19.40;;;9.27;;
65368;SDS011;51970;53.484;49.488;2022-11-20T11:14:25;17.50;;;7.70;;
65368;SDS011;51970;53.484;49.488;2022-11-20T11:16:52;15.48;;;8.68;;
65368;SDS011;51970;53.484;49.488;2022-11-20T11:19:22;15.27;;;7.60;;
65368;SDS011;51970;53.484;49.488;2022-11-20T11:21:49;19.15;;;10.32;;
65368;SDS011;51970;53.484;49.488;2022-11-20T11:24:22;36.45;;;21.15;;
65368;SDS011;51970;53.484;49.488;2022-11-20T11:29:32;15.57;;;7.60;;
65368;SDS011;51970;53.484;49.488;2022-11-20T11:32:04;15.38;;;8.20;;
65368;SDS011;51970;53.484;49.488;2022-11-20T11:34:31;22.58;;;11.40;;
65368;SDS011;51970;53.484;49.488;2022-11-20T11:36:58;23.90;;;12.55;;
65368;SDS011;51970;53.484;49.488;2022-11-20T11:39:26;21.33;;;11.68;;
65368;SDS011;51970;53.484;49.488;2022-11-20T11:41:54;17.30;;;9.75;;
65368;SDS011;51970;53.484;49.488;2022-11-20T11:44:21;20.08;;;10.77;;
65368;SDS011;51970;53.484;49.488;2022-11-20T11:47:25;24.60;;;12.52;;
65368;SDS011;51970;53.484;49.488;2022-11-20T11:50:02;18.05;;;9.30;;
65368;SDS011;51970;53.484;49.488;2022-11-20T12:04:19;17.45;;;9.80;;
65368;SDS011;51970;53.484;49.488;2022-11-20T12:06:48;18.00;;;9.20;;
65368;SDS011;51970;53.484;49.488;2022-11-20T12:09:20;16.05;;;6.90;;
65368;SDS011;51970;53.484;49.488;2022-11-20T12:11:52;14.57;;;9.80;;
65368;SDS011;51970;53.484;49.488;2022-11-20T12:14:34;14.20;;;7.68;;
65368;SDS011;51970;53.484;49.488;2022-11-20T12:17:03;12.43;;;6.45;;
65368;SDS011;51970;53.484;49.488;2022-11-20T12:19:31;13.20;;;6.22;;
65368;SDS011;51970;53.484;49.488;2022-11-20T12:22:09;12.23;;;6.53;;
65368;SDS011;51970;53.484;49.488;2022-11-20T12:24:55;12.55;;;5.38;;
65368;SDS011;51970;53.484;49.488;2022-11-20T12:27:35;10.95;;;6.03;;
65368;SDS011;51970;53.484;49.488;2022-11-20T12:30:19;13.95;;;7.32;;
65368;SDS011;51970;53.484;49.488;2022-11-20T12:36:10;41.20;;;16.17;;
65368;SDS011;51970;53.484;49.488;2022-11-20T12:38:56;30.92;;;15.35;;
65368;SDS011;51970;53.484;49.488;2022-11-20T12:55:03;27.33;;;13.00;;
65368;SDS011;51970;53.484;49.488;2022-11-20T13:00:46;15.80;;;8.38;;
65368;SDS011;51970;53.484;49.488;2022-11-20T13:06:20;17.88;;;9.32;;
65368;SDS011;51970;53.484;49.488;2022-11-20T13:08:55;21.65;;;10.70;;
65368;SDS011;51970;53.484;49.488;2022-11-20T13:11:32;21.00;;;10.23;;
65368;SDS011;51970;53.484;49.488;2022-11-20T13:14:34;17.70;;;8.07;;
65368;SDS011;51970;53.484;49.488;2022-11-20T13:20:13;16.55;;;8.27;;
65368;SDS011;51970;53.484;49.488;2022-11-20T13:22:46;13.45;;;6.68;;
65368;SDS011;51970;53.484;49.488;2022-11-20T13:30:34;19.33;;;8.80;;
65368;SDS011;51970;53.484;49.488;2022-11-20T13:33:06;13.52;;;7.43;;
65368;SDS011;51970;53.484;49.488;2022-11-20T13:35:36;19.52;;;9.32;;
65368;SDS011;51970;53.484;49.488;2022-11-20T13:38:10;20.67;;;10.05;;
65368;SDS011;51970;53.484;49.488;2022-11-20T13:40:39;20.80;;;10.75;;
65368;SDS011;51970;53.484;49.488;2022-11-20T13:45:58;31.10;;;11.82;;
65368;SDS011;51970;53.484;49.488;2022-11-20T13:48:32;23.15;;;11.60;;
65368;SDS011;51970;53.484;49.488;2022-11-20T14:01:59;13.88;;;7.60;;
65368;SDS011;51970;53.484;49.488;2022-11-20T14:04:27;11.57;;;6.35;;
65368;SDS011;51970;53.484;49.488;2022-11-20T14:06:57;13.82;;;7.45;;
65368;SDS011;51970;53.484;49.488;2022-11-20T14:09:25;12.55;;;8.55;;
65368;SDS011;51970;53.484;49.488;2022-11-20T14:11:56;10.88;;;5.30;;
65368;SDS011;51970;53.484;49.488;2022-11-20T14:14:26;11.18;;;5.68;;
65368;SDS011;51970;53.484;49.488;2022-11-20T14:17:07;14.65;;;7.30;;
65368;SDS011;51970;53.484;49.488;2022-11-20T14:19:44;23.38;;;10.63;;
65368;SDS011;51970;53.484;49.488;2022-11-20T14:24:47;17.85;;;9.63;;
65368;SDS011;51970;53.484;49.488;2022-11-20T14:27:16;10.40;;;5.65;;
65368;SDS011;51970;53.484;49.488;2022-11-20T14:29:45;11.55;;;5.70;;
65368;SDS011;51970;53.484;49.488;2022-11-20T14:32:14;14.77;;;7.15;;
65368;SDS011;51970;53.484;49.488;2022-11-20T14:34:43;11.63;;;6.57;;
65368;SDS011;51970;53.484;49.488;2022-11-20T14:37:17;10.65;;;6.03;;
65368;SDS011;51970;53.484;49.488;2022-11-20T14:39:54;14.52;;;7.28;;
65368;SDS011;51970;53.484;49.488;2022-11-20T14:42:26;12.23;;;6.38;;
65368;SDS011;51970;53.484;49.488;2022-11-20T14:44:57;16.83;;;6.75;;
65368;SDS011;51970;53.484;49.488;2022-11-20T14:47:25;16.90;;;8.93;;
65368;SDS011;51970;53.484;49.488;2022-11-20T14:49:56;17.85;;;9.13;;
65368;SDS011;51970;53.484;49.488;2022-11-20T14:52:24;16.88;;;10.88;;
65368;SDS011;51970;53.484;49.488;2022-11-20T14:54:53;15.40;;;6.93;;
65368;SDS011;51970;53.484;49.488;2022-11-20T14:57:21;12.32;;;7.60;;
65368;SDS011;51970;53.484;49.488;2022-11-20T14:59:50;11.27;;;6.63;;
65368;SDS011;51970;53.484;49.488;2022-11-20T15:02:16;14.73;;;9.60;;
65368;SDS011;51970;53.484;49.488;2022-11-20T15:04:46;14.88;;;11.20;;
65368;SDS011;51970;53.484;49.488;2022-11-20T15:07:26;18.20;;;8.55;;
65368;SDS011;51970;53.484;49.488;2022-11-20T15:10:01;15.73;;;11.70;;
65368;SDS011;51970;53.484;49.488;2022-11-20T15:12:34;16.85;;;9.35;;
65368;SDS011;51970;53.484;49.488;2022-11-20T15:15:03;14.60;;;8.00;;
65368;SDS011;51970;53.484;49.488;2022-11-20T15:17:31;14.38;;;9.48;;
65368;SDS011;51970;53.484;49.488;2022-11-20T15:20:01;15.80;;;9.23;;
65368;SDS011;51970;53.484;49.488;2022-11-20T15:22:28;15.90;;;8.70;;
65368;SDS011;51970;53.484;49.488;2022-11-20T15:24:54;14.43;;;8.60;;
65368;SDS011;51970;53.484;49.488;2022-11-20T15:27:22;15.93;;;8.63;;
65368;SDS011;51970;53.484;49.488;2022-11-20T15:29:55;15.18;;;8.18;;
65368;SDS011;51970;53.484;49.488;2022-11-20T15:32:21;14.20;;;8.25;;
65368;SDS011;51970;53.484;49.488;2022-11-20T15:34:48;15.82;;;8.77;;
65368;SDS011;51970;53.484;49.488;2022-11-20T15:37:14;14.98;;;8.80;;
65368;SDS011;51970;53.484;49.488;2022-11-20T15:39:40;16.73;;;8.65;;
65368;SDS011;51970;53.484;49.488;2022-11-20T15:42:07;17.00;;;8.40;;
65368;SDS011;51970;53.484;49.488;2022-11-20T15:44:34;18.55;;;10.75;;
65368;SDS011;51970;53.484;49.488;2022-11-20T15:47:00;16.40;;;9.48;;
65368;SDS011;51970;53.484;49.488;2022-11-20T15:49:26;16.30;;;9.98;;
65368;SDS011;51970;53.484;49.488;2022-11-20T15:51:53;16.38;;;9.50;;
65368;SDS011;51970;53.484;49.488;2022-11-20T15:54:20;20.58;;;11.00;;
65368;SDS011;51970;53.484;49.488;2022-11-20T15:56:50;19.83;;;12.02;;
65368;SDS011;51970;53.484;49.488;2022-11-20T15:59:19;23.02;;;9.93;;
65368;SDS011;51970;53.484;49.488;2022-11-20T16:01:46;21.27;;;11.95;;
65368;SDS011;51970;53.484;49.488;2022-11-20T16:04:15;18.92;;;10.43;;
65368;SDS011;51970;53.484;49.488;2022-11-20T16:06:43;15.90;;;8.43;;
65368;SDS011;51970;53.484;49.488;2022-11-20T16:09:12;17.55;;;7.93;;
65368;SDS011;51970;53.484;49.488;2022-11-20T16:11:39;18.48;;;9.35;;
65368;SDS011;51970;53.484;49.488;2022-11-20T16:14:08;16.23;;;9.10;;